createdAt,value
2018-10-17T00:05:57.189Z,98223.30
2018-10-17T00:08:28.013Z,98226.94
2018-10-17T00:10:58.776Z,98219.88
2018-10-17T00:13:29.431Z,98227.78
2018-10-17T00:19:00.956Z,98220.98
2018-10-17T00:21:43.265Z,98220.98
2018-10-17T00:30:11.239Z,98222.08
2018-10-17T00:32:42.553Z,98221.01
2018-10-17T00:35:24.719Z,98222.24
2018-10-17T00:37:55.367Z,98222.24
2018-10-17T00:40:45.057Z,98224.80
2018-10-17T00:43:27.790Z,98223.69
2018-10-17T00:45:58.506Z,98223.69
2018-10-17T00:48:29.668Z,98215.10
2018-10-17T00:53:42.887Z,98222.88
2018-10-17T00:56:13.626Z,98218.09
2018-10-17T00:59:17.218Z,98220.45
2018-10-17T01:01:47.962Z,98219.73
2018-10-17T01:04:18.628Z,98219.58
2018-10-17T01:06:49.327Z,98214.61
2018-10-17T01:09:19.994Z,98213.56
2018-10-17T01:11:50.653Z,98212.34
2018-10-17T01:14:21.337Z,98214.95
2018-10-17T01:19:34.369Z,98212.67
2018-10-17T01:22:05.037Z,98208.45
2018-10-17T01:24:35.704Z,98212.41
2018-10-17T01:30:06.499Z,98209.52
2018-10-17T01:32:55.930Z,98202.77
2018-10-17T01:35:26.584Z,98202.37
2018-10-17T01:40:53.356Z,98198.09
2018-10-17T01:46:05.374Z,98198.48
2018-10-17T01:48:47.697Z,98193.55
2018-10-17T01:51:18.363Z,98191.03
2018-10-17T01:57:03.041Z,98190.95
2018-10-17T02:02:15.766Z,98187.13
2018-10-17T02:04:46.438Z,98184.59
2018-10-17T02:07:28.927Z,98179.69
2018-10-17T02:10:19.234Z,98185.70
2018-10-17T02:13:08.980Z,98181.88
2018-10-17T02:15:52.999Z,98178.95
2018-10-17T02:18:42.625Z,98178.63
2018-10-17T02:26:55.798Z,98186.42
2018-10-17T02:29:45.205Z,98185.67
2018-10-17T02:32:15.907Z,98186.23
2018-10-17T02:35:05.271Z,98181.77
2018-10-17T02:37:35.940Z,98186.95
2018-10-17T02:40:06.729Z,98182.05
2018-10-17T02:45:33.819Z,98178.83
2018-10-17T02:48:21.741Z,98178.90
2018-10-17T02:50:52.515Z,98173.93
2018-10-17T02:53:23.397Z,98170.58
2018-10-17T03:01:42.043Z,98166.15
2018-10-17T03:04:18.974Z,98166.70
2018-10-17T03:09:32.399Z,98169.03
2018-10-17T03:14:44.478Z,98168.25
2018-10-17T03:17:15.231Z,98170.69
2018-10-17T03:19:46.070Z,98172.06
2018-10-17T03:22:16.780Z,98174.11
2018-10-17T03:25:06.445Z,98175.70
2018-10-17T03:30:18.985Z,98188.48
2018-10-17T03:33:08.720Z,98181.59
2018-10-17T03:35:51.719Z,98186.84
2018-10-17T03:40:52.563Z,98183.97
2018-10-17T03:43:23.263Z,98188.78
2018-10-17T03:45:54.015Z,98184.34
2018-10-17T03:48:24.915Z,98186.28
2018-10-17T03:50:55.960Z,98186.91
2018-10-17T03:53:26.605Z,98188.28
2018-10-17T03:55:57.266Z,98190.96
2018-10-17T03:58:27.970Z,98195.30
2018-10-17T04:00:58.636Z,98189.64
2018-10-17T04:03:29.347Z,98184.73
2018-10-17T04:06:00.028Z,98188.20
2018-10-17T04:08:42.494Z,98192.46
2018-10-17T04:11:07.227Z,98184.19
2018-10-17T04:13:52.279Z,98193.05
2018-10-17T04:16:28.519Z,98190.78
2018-10-17T04:19:13.742Z,98194.83
2018-10-17T04:21:49.541Z,98192.84
2018-10-17T04:27:29.171Z,98198.36
2018-10-17T04:30:00.190Z,98199.27
2018-10-17T04:32:30.858Z,98198.98
2018-10-17T04:35:01.608Z,98198.71
2018-10-17T04:37:32.351Z,98203.67
2018-10-17T04:40:03.038Z,98201.23
2018-10-17T04:42:33.687Z,98200.18
2018-10-17T04:45:23.375Z,98195.84
2018-10-17T04:47:54.119Z,98200.23
2018-10-17T04:50:24.865Z,98197.48
2018-10-17T04:52:55.613Z,98199.88
2018-10-17T04:55:45.299Z,98200.56
2018-10-17T04:58:16.016Z,98198.30
2018-10-17T05:04:12.486Z,98195.05
2018-10-17T05:09:32.651Z,98197.42
2018-10-17T05:12:04.292Z,98203.55
2018-10-17T05:14:46.439Z,98201.38
2018-10-17T05:17:44.325Z,98203.63
2018-10-17T05:20:15.009Z,98196.38
2018-10-17T05:22:45.675Z,98201.18
2018-10-17T05:25:16.434Z,98201.05
2018-10-17T05:27:58.534Z,98203.39
2018-10-17T05:30:23.676Z,98202.75
2018-10-17T05:32:54.372Z,98195.80
2018-10-17T05:35:25.034Z,98198.88
2018-10-17T05:37:55.974Z,98201.31
2018-10-17T05:40:26.607Z,98198.70
2018-10-17T05:42:57.691Z,98209.46
2018-10-17T05:45:28.318Z,98207.91
2018-10-17T05:48:10.811Z,98211.72
2018-10-17T05:50:49.336Z,98214.36
2018-10-17T05:53:20.020Z,98215.45
2018-10-17T05:55:50.700Z,98212.47
2018-10-17T05:58:21.821Z,98213.22
2018-10-17T06:00:52.650Z,98214.95
2018-10-17T06:03:23.274Z,98222.93
2018-10-17T06:11:39.827Z,98219.17
2018-10-17T06:14:15.812Z,98218.09
2018-10-17T06:16:58.944Z,98218.86
2018-10-17T06:22:27.598Z,98234.06
2018-10-17T06:28:06.630Z,98223.67
2018-10-17T06:30:37.564Z,98223.97
2018-10-17T06:36:03.603Z,98226.72
2018-10-17T06:41:16.415Z,98227.52
2018-10-17T06:43:47.108Z,98238.89
2018-10-17T06:49:03.926Z,98237.42
2018-10-17T06:57:23.197Z,98238.88
2018-10-17T06:59:53.863Z,98237.00
2018-10-17T07:02:24.692Z,98238.45
2018-10-17T07:04:55.293Z,98236.12
2018-10-17T07:07:25.944Z,98230.55
2018-10-17T07:09:56.602Z,98228.61
2018-10-17T07:12:29.114Z,98228.84
2018-10-17T07:14:57.908Z,98225.57
2018-10-17T07:17:28.572Z,98225.73
2018-10-17T07:23:13.732Z,98219.72
2018-10-17T07:25:56.283Z,98225.73
2018-10-17T07:28:26.943Z,98228.75
2018-10-17T07:31:12.101Z,98225.35
2018-10-17T07:33:46.648Z,98216.92
2018-10-17T07:36:24.205Z,98216.05
2018-10-17T07:38:49.728Z,98221.57
2018-10-17T07:41:20.372Z,98223.19
2018-10-17T07:43:51.512Z,98216.92
2018-10-17T07:46:22.145Z,98228.20
2018-10-17T07:48:55.409Z,98225.84
2018-10-17T07:51:38.004Z,98222.39
2018-10-17T07:54:14.097Z,98225.27
2018-10-17T07:59:58.719Z,98229.79
2018-10-17T08:02:48.020Z,98225.53
2018-10-17T08:05:30.473Z,98232.24
2018-10-17T08:07:55.119Z,98233.09
2018-10-17T08:10:25.767Z,98236.55
2018-10-17T08:13:00.116Z,98234.21
2018-10-17T08:15:30.984Z,98230.63
2018-10-17T08:17:59.111Z,98232.07
2018-10-17T08:20:30.058Z,98233.77
2018-10-17T08:23:00.797Z,98236.64
2018-10-17T08:25:31.450Z,98241.86
2018-10-17T08:28:02.165Z,98237.62
2018-10-17T08:30:47.308Z,98232.75
2018-10-17T08:33:23.867Z,98234.50
2018-10-17T08:36:13.645Z,98232.66
2018-10-17T08:38:44.214Z,98226.39
2018-10-17T08:41:17.888Z,98227.86
2018-10-17T08:43:45.562Z,98229.20
2018-10-17T08:46:16.453Z,98230.84
2018-10-17T08:48:58.665Z,98228.61
2018-10-17T08:51:41.289Z,98228.47
2018-10-17T08:54:23.912Z,98228.47
2018-10-17T08:57:01.229Z,98229.06
2018-10-17T08:59:25.970Z,98233.95
2018-10-17T09:01:56.677Z,98227.08
2018-10-17T09:04:38.643Z,98232.29
2018-10-17T09:07:27.990Z,98232.29
2018-10-17T09:10:10.566Z,98223.06
2018-10-17T09:12:49.184Z,98220.14
2018-10-17T09:15:51.253Z,98221.40
2018-10-17T09:18:44.476Z,98221.40
2018-10-17T09:21:25.995Z,98222.95
2018-10-17T09:24:07.825Z,98222.95
2018-10-17T09:26:38.453Z,98218.89
2018-10-17T09:32:17.659Z,98213.03
2018-10-17T09:38:02.289Z,98196.55
2018-10-17T09:40:45.204Z,98207.02
2018-10-17T09:43:27.985Z,98207.02
2018-10-17T09:45:52.645Z,98206.14
2018-10-17T09:51:19.415Z,98197.34
2018-10-17T09:53:50.078Z,98205.71
2018-10-17T09:59:16.149Z,98193.72
2018-10-17T10:02:05.562Z,98193.72
2018-10-17T10:04:36.779Z,98197.39
2018-10-17T10:07:07.427Z,98190.77
2018-10-17T10:09:38.090Z,98192.16
2018-10-17T10:12:20.663Z,98192.94
2018-10-17T10:15:13.254Z,98192.11
2018-10-17T10:17:36.456Z,98186.98
2018-10-17T10:20:07.326Z,98181.71
2018-10-17T10:22:38.368Z,98190.23
2018-10-17T10:25:20.542Z,98176.17
2018-10-17T10:27:46.633Z,98179.84
2018-10-17T10:30:17.303Z,98177.30
2018-10-17T10:33:06.681Z,98177.48
2018-10-17T10:35:37.454Z,98169.91
2018-10-17T10:38:27.198Z,98165.16
2018-10-17T10:41:12.058Z,98160.17
2018-10-17T10:46:37.736Z,98162.36
2018-10-17T10:52:09.603Z,98157.03
2018-10-17T10:55:01.215Z,98153.57
2018-10-17T10:57:26.546Z,98148.20
2018-10-17T11:00:11.550Z,98154.64
2018-10-17T11:02:34.678Z,98147.77
2018-10-17T11:07:46.854Z,98141.41
2018-10-17T11:10:17.516Z,98145.16
2018-10-17T11:12:48.162Z,98141.80
2018-10-17T11:18:00.849Z,98135.45
2018-10-17T11:20:31.489Z,98138.94
2018-10-17T11:23:21.002Z,98132.23
2018-10-17T11:25:51.598Z,98127.22
2018-10-17T11:28:22.254Z,98129.08
2018-10-17T11:31:11.868Z,98122.92
2018-10-17T11:34:01.258Z,98124.74
2018-10-17T11:36:31.991Z,98115.90
2018-10-17T11:39:02.684Z,98116.59
2018-10-17T11:44:59.400Z,98103.66
2018-10-17T11:50:01.856Z,98096.36
2018-10-17T11:52:32.886Z,98102.34
2018-10-17T11:55:03.796Z,98090.23
2018-10-17T11:57:34.484Z,98096.68
2018-10-17T12:00:05.939Z,98098.20
2018-10-17T12:07:58.416Z,98090.69
2018-10-17T12:10:26.399Z,98089.16
2018-10-17T12:13:11.228Z,98090.95
2018-10-17T12:15:33.710Z,98081.63
2018-10-17T12:20:46.185Z,98070.20
2018-10-17T12:23:16.834Z,98069.19
2018-10-17T12:25:47.499Z,98066.30
2018-10-17T12:31:01.057Z,98048.17
2018-10-17T12:33:50.411Z,98060.58
2018-10-17T12:36:21.069Z,98061.81
2018-10-17T12:38:51.764Z,98056.74
2018-10-17T12:41:22.411Z,98049.00
2018-10-17T12:43:53.054Z,98047.28
2018-10-17T12:46:23.805Z,98044.06
2018-10-17T12:48:54.655Z,98043.45
2018-10-17T12:51:37.110Z,98043.69
2018-10-17T12:54:07.919Z,98036.48
2018-10-17T12:56:39.317Z,98039.86
2018-10-17T12:59:10.155Z,98037.32
2018-10-17T13:01:40.715Z,98043.63
2018-10-17T13:04:22.812Z,98046.06
2018-10-17T13:06:53.809Z,98043.49
2018-10-17T13:09:43.766Z,98044.06
2018-10-17T13:12:14.712Z,98039.88
2018-10-17T13:18:11.354Z,98033.92
2018-10-17T13:20:42.306Z,98029.14
2018-10-17T13:23:13.292Z,98033.94
2018-10-17T13:25:43.842Z,98025.68
2018-10-17T13:33:51.906Z,98027.70
2018-10-17T13:36:22.921Z,98025.09
2018-10-17T13:38:53.585Z,98020.48
2018-10-17T13:44:53.885Z,98014.92
2018-10-17T13:47:30.419Z,98017.64
2018-10-17T13:50:07.787Z,98017.03
2018-10-17T13:52:29.793Z,98015.91
2018-10-17T13:55:00.524Z,98013.28
2018-10-17T13:57:45.498Z,98013.77
2018-10-17T14:00:09.098Z,98008.40
2018-10-17T14:02:39.785Z,98008.66
2018-10-17T14:05:29.409Z,98009.73
2018-10-17T14:08:00.349Z,98001.79
2018-10-17T14:10:31.002Z,98012.83
2018-10-17T14:13:01.664Z,98010.56
2018-10-17T14:15:32.769Z,98008.67
2018-10-17T14:18:03.543Z,98009.42
2018-10-17T14:20:34.128Z,98004.66
2018-10-17T14:23:04.745Z,98010.53
2018-10-17T14:25:35.403Z,98008.44
2018-10-17T14:28:24.819Z,98011.63
2018-10-17T14:31:14.832Z,98009.56
2018-10-17T14:36:40.887Z,98008.75
2018-10-17T14:39:13.667Z,98006.83
2018-10-17T14:41:44.640Z,98008.40
2018-10-17T14:44:30.189Z,98008.75
2018-10-17T14:46:52.968Z,98007.03
2018-10-17T14:49:23.615Z,98005.69
2018-10-17T14:52:06.115Z,98008.80
2018-10-17T14:54:31.513Z,98006.11
2018-10-17T15:00:04.814Z,98003.45
2018-10-17T15:02:29.754Z,98004.58
2018-10-17T15:07:56.122Z,98008.27
2018-10-17T15:10:46.266Z,98004.41
2018-10-17T15:13:16.924Z,98009.50
2018-10-17T15:15:48.201Z,98003.00
2018-10-17T15:21:22.630Z,98000.42
2018-10-17T15:24:12.977Z,98002.00
2018-10-17T15:26:35.833Z,98005.24
2018-10-17T15:29:21.505Z,98007.33
2018-10-17T15:34:40.252Z,98004.44
2018-10-17T15:37:25.672Z,98005.51
2018-10-17T15:40:01.738Z,98004.95
2018-10-17T15:42:32.391Z,97999.62
2018-10-17T15:45:03.119Z,98000.62
2018-10-17T15:47:45.491Z,98002.22
2018-10-17T15:50:24.110Z,98003.55
2018-10-17T15:52:54.802Z,98004.11
2018-10-17T15:55:25.450Z,98002.25
2018-10-17T15:57:56.445Z,98002.05
2018-10-17T16:00:27.152Z,98007.84
2018-10-17T16:02:57.833Z,98007.34
2018-10-17T16:08:10.886Z,98006.58
2018-10-17T16:10:41.976Z,98008.99
2018-10-17T16:13:12.637Z,98008.36
2018-10-17T16:15:43.288Z,98003.77
2018-10-17T16:18:14.887Z,98006.47
2018-10-17T16:20:45.546Z,98005.75
2018-10-17T16:23:16.282Z,98003.59
2018-10-17T16:25:46.905Z,98005.56
2018-10-17T16:28:17.937Z,98003.40
2018-10-17T16:30:48.760Z,98010.00
2018-10-17T16:33:19.250Z,98012.42
2018-10-17T16:36:02.269Z,98015.83
2018-10-17T16:38:26.944Z,98015.58
2018-10-17T16:40:57.707Z,98020.02
2018-10-17T16:43:28.297Z,98023.20
2018-10-17T16:49:01.827Z,98026.67
2018-10-17T16:51:27.075Z,98027.27
2018-10-17T16:53:58.253Z,98036.02
2018-10-17T16:56:29.289Z,98041.55
2018-10-17T16:59:00.341Z,98050.76
2018-10-17T17:01:31.372Z,98044.47
2018-10-17T17:04:02.130Z,98045.99
2018-10-17T17:06:47.418Z,98044.06
2018-10-17T17:09:11.685Z,98047.93
2018-10-17T17:11:42.452Z,98046.58
2018-10-17T17:14:16.441Z,98045.64
2018-10-17T17:16:56.585Z,98053.39
2018-10-17T17:19:47.725Z,98053.97
2018-10-17T17:22:13.653Z,98055.84
2018-10-17T17:25:03.800Z,98059.45
2018-10-17T17:27:35.233Z,98059.99
2018-10-17T17:30:08.461Z,98053.95
2018-10-17T17:32:39.144Z,98062.00
2018-10-17T17:35:28.518Z,98062.30
2018-10-17T17:43:45.079Z,98077.33
2018-10-17T17:46:28.125Z,98071.72
2018-10-17T17:49:10.320Z,98073.13
2018-10-17T17:51:48.105Z,98074.22
2018-10-17T17:54:12.813Z,98076.32
2018-10-17T17:56:43.741Z,98073.54
2018-10-17T17:59:25.697Z,98076.96
2018-10-17T18:01:56.329Z,98076.49
2018-10-17T18:04:27.185Z,98081.91
2018-10-17T18:07:16.797Z,98087.86
2018-10-17T18:09:47.458Z,98081.06
2018-10-17T18:12:18.093Z,98088.36
2018-10-17T18:17:44.758Z,98088.78
2018-10-17T18:20:15.413Z,98096.30
2018-10-17T18:22:57.778Z,98097.64
2018-10-17T18:28:29.483Z,98099.52
2018-10-17T18:31:00.149Z,98102.84
2018-10-17T18:36:12.669Z,98106.45
2018-10-17T18:38:43.808Z,98111.85
2018-10-17T18:41:14.949Z,98112.58
2018-10-17T18:43:45.982Z,98102.47
2018-10-17T18:46:16.653Z,98102.47
2018-10-17T18:48:58.954Z,98121.92
2018-10-17T18:51:23.935Z,98129.26
2018-10-17T18:54:07.007Z,98128.20
2018-10-17T18:56:49.174Z,98128.67
2018-10-17T18:59:31.678Z,98121.05
2018-10-17T19:02:13.777Z,98127.64
2018-10-17T19:07:59.351Z,98126.05
2018-10-17T19:10:41.822Z,98135.20
2018-10-17T19:13:24.474Z,98144.77
2018-10-17T19:16:06.977Z,98145.59
2018-10-17T19:18:49.457Z,98149.76
2018-10-17T19:21:32.422Z,98144.81
2018-10-17T19:24:15.081Z,98141.42
2018-10-17T19:26:57.341Z,98155.10
2018-10-17T19:29:39.610Z,98156.70
2018-10-17T19:32:24.944Z,98156.70
2018-10-17T19:34:51.007Z,98144.69
2018-10-17T19:37:31.307Z,98156.05
2018-10-17T19:40:11.361Z,98156.50
2018-10-17T19:48:34.266Z,98168.53
2018-10-17T19:51:08.967Z,98166.00
2018-10-17T19:53:51.973Z,98166.00
2018-10-17T19:56:49.568Z,98158.36
2018-10-17T19:59:31.766Z,98174.75
2018-10-17T20:02:14.490Z,98174.40
2018-10-17T20:04:56.688Z,98160.42
2018-10-17T20:07:27.436Z,98160.42
2018-10-17T20:10:17.150Z,98169.34
2018-10-17T20:12:59.234Z,98171.77
2018-10-17T20:15:41.605Z,98174.78
2018-10-17T20:18:12.693Z,98174.78
2018-10-17T20:20:43.682Z,98176.98
2018-10-17T20:23:14.410Z,98181.14
2018-10-17T20:25:57.243Z,98182.20
2018-10-17T20:28:27.983Z,98182.20
2018-10-17T20:31:10.367Z,98182.29
2018-10-17T20:34:00.233Z,98179.20
2018-10-17T20:36:49.650Z,98179.20
2018-10-17T20:42:10.177Z,98180.09
2018-10-17T20:44:41.392Z,98182.36
2018-10-17T20:47:12.637Z,98182.16
2018-10-17T20:49:43.366Z,98190.82
2018-10-17T20:52:25.747Z,98192.09
2018-10-17T20:57:53.898Z,98192.79
2018-10-17T21:00:43.572Z,98195.22
2018-10-17T21:03:14.317Z,98184.66
2018-10-17T21:06:04.474Z,98190.68
2018-10-17T21:08:47.034Z,98185.92
2018-10-17T21:11:17.745Z,98189.97
2018-10-17T21:13:48.445Z,98185.47
2018-10-17T21:16:19.088Z,98189.77
2018-10-17T21:19:09.444Z,98188.84
2018-10-17T21:21:40.622Z,98189.66
2018-10-17T21:24:18.451Z,98194.52
2018-10-17T21:26:49.216Z,98193.78
2018-10-17T21:29:19.918Z,98196.19
2018-10-17T21:32:09.668Z,98193.72
2018-10-17T21:34:59.296Z,98193.72
2018-10-17T21:38:01.015Z,98199.41
2018-10-17T21:40:44.427Z,98199.41
2018-10-17T21:43:27.109Z,98200.01
2018-10-17T21:46:39.379Z,98194.94
2018-10-17T21:49:01.549Z,98193.73
2018-10-17T21:51:43.835Z,98187.66
2018-10-17T21:57:15.379Z,98181.03
2018-10-17T21:59:46.045Z,98187.09
2018-10-17T22:02:47.626Z,98182.94
2018-10-17T22:05:13.104Z,98184.95
2018-10-17T22:07:43.810Z,98180.19
2018-10-17T22:10:33.241Z,98180.19
2018-10-17T22:18:53.940Z,98173.77
2018-10-17T22:24:19.290Z,98182.61
2018-10-17T22:26:50.002Z,98182.61
2018-10-17T22:32:48.219Z,98180.09
2018-10-17T22:35:37.858Z,98183.33
2018-10-17T22:38:09.080Z,98179.08
2018-10-17T22:43:47.830Z,98182.92
2018-10-17T22:46:18.565Z,98185.07
2018-10-17T22:49:08.259Z,98188.83
2018-10-17T22:51:54.083Z,98187.48
2018-10-17T22:54:16.931Z,98187.64
2018-10-17T22:57:06.607Z,98184.52
2018-10-17T22:59:37.341Z,98188.41
2018-10-17T23:02:08.106Z,98192.62
2018-10-17T23:04:50.891Z,98184.12
2018-10-17T23:07:16.258Z,98182.93
2018-10-17T23:09:47.017Z,98179.42
2018-10-17T23:12:36.681Z,98194.92
2018-10-17T23:15:11.963Z,98187.92
2018-10-17T23:17:42.718Z,98179.20
2018-10-17T23:23:03.767Z,98176.80
2018-10-17T23:25:34.531Z,98185.20
2018-10-17T23:31:09.203Z,98181.20
2018-10-17T23:33:46.152Z,98183.15
2018-10-17T23:36:28.547Z,98187.16
2018-10-17T23:38:59.583Z,98187.16
2018-10-17T23:41:30.295Z,98178.23
2018-10-17T23:44:12.742Z,98181.36
2018-10-17T23:46:49.651Z,98177.89
2018-10-17T23:49:14.734Z,98178.15
2018-10-17T23:54:53.028Z,98177.48
